sensor_id;sensor_type;location;lat;lon;timestamp;pressure;altitude;pressure_sealevel;temperature;humidity
48555;BME280;34336;48.270;16.716;2023-01-26T00:01:15;78139.94;;;18.16;99.98
48555;BME280;34336;48.270;16.716;2023-01-26T00:03:42;78147.66;;;18.16;100.00
48555;BME280;34336;48.270;16.716;2023-01-26T00:06:11;78151.50;;;18.16;100.00
48555;BME280;34336;48.270;16.716;2023-01-26T00:08:40;78155.34;;;18.16;100.00
48555;BME280;34336;48.270;16.716;2023-01-26T00:11:09;78166.94;;;18.16;100.00
48555;BME280;34336;48.270;16.716;2023-01-26T00:13:36;78155.34;;;18.16;100.00
48555;BME280;34336;48.270;16.716;2023-01-26T00:16:03;78161.16;;;18.16;100.00
48555;BME280;34336;48.270;16.716;2023-01-26T00:18:30;78165.00;;;18.16;100.00
48555;BME280;34336;48.270;16.716;2023-01-26T00:20:59;78163.06;;;18.16;100.00
48555;BME280;34336;48.270;16.716;2023-01-26T00:23:27;78165.00;;;18.16;100.00
48555;BME280;34336;48.270;16.716;2023-01-26T00:25:55;78163.06;;;18.16;100.00
48555;BME280;34336;48.270;16.716;2023-01-26T00:28:21;78166.94;;;18.16;100.00
48555;BME280;34336;48.270;16.716;2023-01-26T00:30:48;78163.06;;;18.16;100.00
48555;BME280;34336;48.270;16.716;2023-01-26T00:33:16;78159.22;;;18.16;100.00
48555;BME280;34336;48.270;16.716;2023-01-26T00:35:42;78151.50;;;18.16;100.00
48555;BME280;34336;48.270;16.716;2023-01-26T00:38:13;78139.94;;;18.16;100.00
48555;BME280;34336;48.270;16.716;2023-01-26T00:40:40;78128.38;;;18.16;100.00
48555;BME280;34336;48.270;16.716;2023-01-26T00:43:06;78138.00;;;18.16;100.00
48555;BME280;34336;48.270;16.716;2023-01-26T00:45:33;78136.09;;;18.16;100.00
48555;BME280;34336;48.270;16.716;2023-01-26T00:48:04;78134.16;;;18.16;100.00
48555;BME280;34336;48.270;16.716;2023-01-26T00:50:31;78124.50;;;18.16;100.00
48555;BME280;34336;48.270;16.716;2023-01-26T00:52:59;78128.38;;;18.16;100.00
48555;BME280;34336;48.270;16.716;2023-01-26T00:55:25;78132.22;;;18.16;100.00
48555;BME280;34336;48.270;16.716;2023-01-26T00:58:05;78132.22;;;18.16;100.00
48555;BME280;34336;48.270;16.716;2023-01-26T01:00:35;78132.22;;;18.16;100.00
48555;BME280;34336;48.270;16.716;2023-01-26T01:03:04;78130.31;;;18.16;100.00
48555;BME280;34336;48.270;16.716;2023-01-26T01:05:31;78138.00;;;18.16;100.00
48555;BME280;34336;48.270;16.716;2023-01-26T01:07:58;78136.09;;;18.16;100.00
48555;BME280;34336;48.270;16.716;2023-01-26T01:10:25;78132.22;;;18.16;100.00
48555;BME280;34336;48.270;16.716;2023-01-26T01:12:53;78128.38;;;18.16;100.00
48555;BME280;34336;48.270;16.716;2023-01-26T01:15:22;78138.00;;;18.16;100.00
48555;BME280;34336;48.270;16.716;2023-01-26T01:17:49;78138.00;;;18.16;100.00
48555;BME280;34336;48.270;16.716;2023-01-26T01:20:16;78138.00;;;18.16;100.00
48555;BME280;34336;48.270;16.716;2023-01-26T01:22:42;78136.09;;;18.16;100.00
48555;BME280;34336;48.270;16.716;2023-01-26T01:25:09;78132.22;;;18.16;100.00
48555;BME280;34336;48.270;16.716;2023-01-26T01:27:36;78136.09;;;18.16;100.00
48555;BME280;34336;48.270;16.716;2023-01-26T01:30:03;78128.38;;;18.16;100.00
48555;BME280;34336;48.270;16.716;2023-01-26T01:32:36;78139.94;;;18.16;100.00
48555;BME280;34336;48.270;16.716;2023-01-26T01:35:02;78132.22;;;18.16;100.00
48555;BME280;34336;48.270;16.716;2023-01-26T01:37:30;78132.22;;;18.16;100.00
48555;BME280;34336;48.270;16.716;2023-01-26T01:39:56;78128.38;;;18.16;100.00
48555;BME280;34336;48.270;16.716;2023-01-26T01:42:24;78132.22;;;18.16;100.00
48555;BME280;34336;48.270;16.716;2023-01-26T01:47:49;78132.22;;;18.16;100.00
48555;BME280;34336;48.270;16.716;2023-01-26T01:50:15;78120.66;;;18.16;100.00
48555;BME280;34336;48.270;16.716;2023-01-26T01:52:43;78120.66;;;18.16;100.00
48555;BME280;34336;48.270;16.716;2023-01-26T01:55:12;78126.44;;;18.16;100.00
48555;BME280;34336;48.270;16.716;2023-01-26T01:57:42;78116.81;;;18.16;100.00
48555;BME280;34336;48.270;16.716;2023-01-26T02:00:16;78120.66;;;18.16;100.00
48555;BME280;34336;48.270;16.716;2023-01-26T02:02:53;78120.66;;;18.16;100.00
48555;BME280;34336;48.270;16.716;2023-01-26T02:05:56;78112.94;;;18.16;100.00
48555;BME280;34336;48.270;16.716;2023-01-26T02:08:29;78116.81;;;18.16;100.00
48555;BME280;34336;48.270;16.716;2023-01-26T02:10:59;78116.81;;;18.16;100.00
48555;BME280;34336;48.270;16.716;2023-01-26T02:13:28;78109.09;;;18.16;100.00
48555;BME280;34336;48.270;16.716;2023-01-26T02:15:58;78112.94;;;18.16;100.00
48555;BME280;34336;48.270;16.716;2023-01-26T02:18:25;78105.22;;;18.16;100.00
48555;BME280;34336;48.270;16.716;2023-01-26T02:20:56;78111.03;;;18.16;100.00
48555;BME280;34336;48.270;16.716;2023-01-26T02:28:25;78114.88;;;18.16;100.00
48555;BME280;34336;48.270;16.716;2023-01-26T02:30:53;78109.09;;;18.16;100.00
48555;BME280;34336;48.270;16.716;2023-01-26T02:33:24;78107.16;;;18.16;100.00
48555;BME280;34336;48.270;16.716;2023-01-26T02:35:54;78107.16;;;18.16;100.00
48555;BME280;34336;48.270;16.716;2023-01-26T02:38:22;78105.22;;;18.16;100.00
48555;BME280;34336;48.270;16.716;2023-01-26T02:40:58;78109.09;;;18.16;100.00
48555;BME280;34336;48.270;16.716;2023-01-26T02:43:26;78101.38;;;18.16;100.00
48555;BME280;34336;48.270;16.716;2023-01-26T02:45:53;78089.81;;;18.16;100.00
48555;BME280;34336;48.270;16.716;2023-01-26T02:48:21;78093.66;;;18.16;100.00
48555;BME280;34336;48.270;16.716;2023-01-26T02:51:06;78093.66;;;18.16;100.00
48555;BME280;34336;48.270;16.716;2023-01-26T02:53:33;78099.44;;;18.16;100.00
48555;BME280;34336;48.270;16.716;2023-01-26T02:56:00;78087.88;;;18.16;100.00
48555;BME280;34336;48.270;16.716;2023-01-26T02:58:26;78089.81;;;18.16;100.00
48555;BME280;34336;48.270;16.716;2023-01-26T03:00:53;78082.09;;;18.16;100.00
48555;BME280;34336;48.270;16.716;2023-01-26T03:03:23;78076.31;;;18.16;100.00
48555;BME280;34336;48.270;16.716;2023-01-26T03:05:51;78070.53;;;18.16;100.00
48555;BME280;34336;48.270;16.716;2023-01-26T03:08:17;78066.69;;;18.16;100.00
48555;BME280;34336;48.270;16.716;2023-01-26T03:10:44;78070.53;;;18.16;100.00
48555;BME280;34336;48.270;16.716;2023-01-26T03:13:13;78064.75;;;18.16;100.00
48555;BME280;34336;48.270;16.716;2023-01-26T03:15:40;78064.75;;;18.16;100.00
48555;BME280;34336;48.270;16.716;2023-01-26T03:18:21;78066.69;;;18.16;100.00
48555;BME280;34336;48.270;16.716;2023-01-26T03:21:15;78051.25;;;18.16;100.00
48555;BME280;34336;48.270;16.716;2023-01-26T03:24:01;78051.25;;;18.16;100.00
48555;BME280;34336;48.270;16.716;2023-01-26T03:26:47;78051.25;;;18.16;100.00
48555;BME280;34336;48.270;16.716;2023-01-26T03:29:33;78053.19;;;18.16;100.00
48555;BME280;34336;48.270;16.716;2023-01-26T03:32:01;78047.41;;;18.16;100.00
48555;BME280;34336;48.270;16.716;2023-01-26T03:34:28;78051.25;;;18.16;100.00
48555;BME280;34336;48.270;16.716;2023-01-26T03:36:55;78043.53;;;18.16;100.00
48555;BME280;34336;48.270;16.716;2023-01-26T03:39:22;78047.41;;;18.16;100.00
48555;BME280;34336;48.270;16.716;2023-01-26T03:42:08;78045.47;;;18.16;100.00
48555;BME280;34336;48.270;16.716;2023-01-26T03:44:53;78035.84;;;18.16;100.00
48555;BME280;34336;48.270;16.716;2023-01-26T03:47:41;78035.84;;;18.16;100.00
48555;BME280;34336;48.270;16.716;2023-01-26T03:50:28;78033.91;;;18.16;100.00
48555;BME280;34336;48.270;16.716;2023-01-26T03:53:16;78031.97;;;18.16;100.00
48555;BME280;34336;48.270;16.716;2023-01-26T03:56:06;78024.25;;;18.16;100.00
48555;BME280;34336;48.270;16.716;2023-01-26T03:58:55;78028.13;;;18.16;100.00
48555;BME280;34336;48.270;16.716;2023-01-26T04:01:25;78022.34;;;18.16;100.00
48555;BME280;34336;48.270;16.716;2023-01-26T04:03:56;78030.06;;;18.16;100.00
48555;BME280;34336;48.270;16.716;2023-01-26T04:06:45;78016.56;;;18.16;100.00
48555;BME280;34336;48.270;16.716;2023-01-26T04:09:31;78014.63;;;18.16;100.00
48555;BME280;34336;48.270;16.716;2023-01-26T04:11:58;78018.47;;;18.16;100.00
48555;BME280;34336;48.270;16.716;2023-01-26T04:14:25;78018.47;;;18.16;100.00
48555;BME280;34336;48.270;16.716;2023-01-26T04:17:18;78016.56;;;18.16;100.00
48555;BME280;34336;48.270;16.716;2023-01-26T04:20:04;78001.13;;;18.16;100.00
48555;BME280;34336;48.270;16.716;2023-01-26T04:22:50;78012.69;;;18.16;100.00
48555;BME280;34336;48.270;16.716;2023-01-26T04:25:19;78003.06;;;18.16;100.00
48555;BME280;34336;48.270;16.716;2023-01-26T04:27:46;77999.19;;;18.16;100.00
48555;BME280;34336;48.270;16.716;2023-01-26T04:30:15;77993.41;;;18.16;100.00
48555;BME280;34336;48.270;16.716;2023-01-26T04:32:42;77997.28;;;18.16;100.00
48555;BME280;34336;48.270;16.716;2023-01-26T04:35:09;77993.41;;;18.16;100.00
48555;BME280;34336;48.270;16.716;2023-01-26T04:37:37;77985.72;;;18.16;100.00
48555;BME280;34336;48.270;16.716;2023-01-26T04:40:05;77981.84;;;18.16;100.00
48555;BME280;34336;48.270;16.716;2023-01-26T04:42:34;77978.00;;;18.16;100.00
48555;BME280;34336;48.270;16.716;2023-01-26T04:45:03;77985.72;;;18.16;100.00
48555;BME280;34336;48.270;16.716;2023-01-26T04:47:30;77981.84;;;18.16;100.00
48555;BME280;34336;48.270;16.716;2023-01-26T04:49:57;77985.72;;;18.16;100.00
48555;BME280;34336;48.270;16.716;2023-01-26T04:52:23;77976.06;;;18.16;100.00
48555;BME280;34336;48.270;16.716;2023-01-26T04:54:50;77978.00;;;18.16;100.00
48555;BME280;34336;48.270;16.716;2023-01-26T04:57:17;77974.13;;;18.16;100.00
48555;BME280;34336;48.270;16.716;2023-01-26T04:59:48;77978.00;;;18.16;100.00
48555;BME280;34336;48.270;16.716;2023-01-26T05:02:17;77968.34;;;18.16;100.00
48555;BME280;34336;48.270;16.716;2023-01-26T05:04:43;77970.28;;;18.16;100.00
48555;BME280;34336;48.270;16.716;2023-01-26T05:07:12;77968.34;;;18.16;100.00
48555;BME280;34336;48.270;16.716;2023-01-26T05:09:39;77966.44;;;18.16;100.00
48555;BME280;34336;48.270;16.716;2023-01-26T05:12:24;77970.28;;;18.16;100.00
48555;BME280;34336;48.270;16.716;2023-01-26T05:15:31;77962.56;;;18.16;100.00
48555;BME280;34336;48.270;16.716;2023-01-26T05:18:11;77954.88;;;18.16;100.00
48555;BME280;34336;48.270;16.716;2023-01-26T05:20:54;77962.56;;;18.16;100.00
48555;BME280;34336;48.270;16.716;2023-01-26T05:23:25;77954.88;;;18.16;100.00
48555;BME280;34336;48.270;16.716;2023-01-26T05:26:13;77958.72;;;18.16;100.00
48555;BME280;34336;48.270;16.716;2023-01-26T05:28:52;77958.72;;;18.16;100.00
48555;BME280;34336;48.270;16.716;2023-01-26T05:31:18;77962.56;;;18.16;100.00
48555;BME280;34336;48.270;16.716;2023-01-26T05:33:45;77962.56;;;18.16;100.00
48555;BME280;34336;48.270;16.716;2023-01-26T05:36:18;77962.56;;;18.16;100.00
48555;BME280;34336;48.270;16.716;2023-01-26T05:38:45;77962.56;;;18.16;100.00
48555;BME280;34336;48.270;16.716;2023-01-26T05:41:13;77958.72;;;18.16;100.00
48555;BME280;34336;48.270;16.716;2023-01-26T05:43:53;77962.56;;;18.16;100.00
48555;BME280;34336;48.270;16.716;2023-01-26T05:46:33;77962.56;;;18.16;100.00
48555;BME280;34336;48.270;16.716;2023-01-26T05:49:01;77954.88;;;18.16;100.00
48555;BME280;34336;48.270;16.716;2023-01-26T05:51:28;77954.88;;;18.16;100.00
48555;BME280;34336;48.270;16.716;2023-01-26T05:53:55;77960.66;;;18.16;100.00
48555;BME280;34336;48.270;16.716;2023-01-26T05:56:21;77954.88;;;18.16;100.00
48555;BME280;34336;48.270;16.716;2023-01-26T05:58:53;77966.44;;;18.16;100.00
48555;BME280;34336;48.270;16.716;2023-01-26T06:01:20;77966.44;;;18.16;100.00
48555;BME280;34336;48.270;16.716;2023-01-26T06:03:54;77962.56;;;18.16;100.00
48555;BME280;34336;48.270;16.716;2023-01-26T06:06:21;77964.50;;;18.16;100.00
48555;BME280;34336;48.270;16.716;2023-01-26T06:08:58;77960.66;;;18.16;100.00
48555;BME280;34336;48.270;16.716;2023-01-26T06:11:31;77958.72;;;18.16;100.00
48555;BME280;34336;48.270;16.716;2023-01-26T06:14:24;77951.00;;;18.16;100.00
48555;BME280;34336;48.270;16.716;2023-01-26T06:16:51;77951.00;;;18.16;100.00
48555;BME280;34336;48.270;16.716;2023-01-26T06:19:19;77956.78;;;18.16;100.00
48555;BME280;34336;48.270;16.716;2023-01-26T06:21:51;77962.56;;;18.16;100.00
48555;BME280;34336;48.270;16.716;2023-01-26T06:24:19;77956.78;;;18.16;100.00
48555;BME280;34336;48.270;16.716;2023-01-26T06:26:46;77962.56;;;18.16;100.00
48555;BME280;34336;48.270;16.716;2023-01-26T06:29:16;77962.56;;;18.16;100.00
48555;BME280;34336;48.270;16.716;2023-01-26T06:31:42;77960.66;;;18.16;100.00
48555;BME280;34336;48.270;16.716;2023-01-26T06:34:10;77962.56;;;18.16;100.00
48555;BME280;34336;48.270;16.716;2023-01-26T06:36:39;77958.72;;;18.16;100.00
48555;BME280;34336;48.270;16.716;2023-01-26T06:39:10;77958.72;;;18.16;100.00
48555;BME280;34336;48.270;16.716;2023-01-26T06:41:41;77956.78;;;18.16;100.00
48555;BME280;34336;48.270;16.716;2023-01-26T06:44:08;77952.94;;;18.16;100.00
48555;BME280;34336;48.270;16.716;2023-01-26T06:46:35;77954.88;;;18.16;100.00
48555;BME280;34336;48.270;16.716;2023-01-26T06:49:03;77954.88;;;18.16;100.00
48555;BME280;34336;48.270;16.716;2023-01-26T06:51:54;77945.22;;;18.16;100.00
48555;BME280;34336;48.270;16.716;2023-01-26T06:54:30;77958.72;;;18.16;100.00
48555;BME280;34336;48.270;16.716;2023-01-26T06:57:19;77947.16;;;18.16;100.00
48555;BME280;34336;48.270;16.716;2023-01-26T07:00:05;77947.16;;;18.16;100.00
48555;BME280;34336;48.270;16.716;2023-01-26T07:02:52;77951.00;;;18.16;100.00
48555;BME280;34336;48.270;16.716;2023-01-26T07:05:19;77949.09;;;18.16;100.00
48555;BME280;34336;48.270;16.716;2023-01-26T07:07:46;77954.88;;;18.16;100.00
48555;BME280;34336;48.270;16.716;2023-01-26T07:10:13;77951.00;;;18.16;100.00
48555;BME280;34336;48.270;16.716;2023-01-26T07:12:42;77943.31;;;18.16;100.00
48555;BME280;34336;48.270;16.716;2023-01-26T07:15:10;77941.38;;;18.16;100.00
48555;BME280;34336;48.270;16.716;2023-01-26T07:17:38;77951.00;;;18.16;100.00
48555;BME280;34336;48.270;16.716;2023-01-26T07:20:06;77939.44;;;18.16;100.00
48555;BME280;34336;48.270;16.716;2023-01-26T07:22:33;77931.72;;;18.16;100.00
48555;BME280;34336;48.270;16.716;2023-01-26T07:24:59;77929.81;;;18.16;100.00
48555;BME280;34336;48.270;16.716;2023-01-26T07:27:26;77931.72;;;18.16;100.00
48555;BME280;34336;48.270;16.716;2023-01-26T07:29:52;77920.16;;;18.16;100.00
48555;BME280;34336;48.270;16.716;2023-01-26T07:32:19;77916.31;;;18.16;100.00
48555;BME280;34336;48.270;16.716;2023-01-26T07:34:46;77916.31;;;18.16;100.00
48555;BME280;34336;48.270;16.716;2023-01-26T07:37:14;77908.59;;;18.16;100.00
48555;BME280;34336;48.270;16.716;2023-01-26T07:39:41;77908.59;;;18.16;100.00
48555;BME280;34336;48.270;16.716;2023-01-26T07:42:09;77900.88;;;18.16;100.00
48555;BME280;34336;48.270;16.716;2023-01-26T07:44:47;77902.81;;;18.16;100.00
48555;BME280;34336;48.270;16.716;2023-01-26T07:47:14;77895.09;;;18.16;100.00
48555;BME280;34336;48.270;16.716;2023-01-26T07:49:41;77893.19;;;18.16;100.00
48555;BME280;34336;48.270;16.716;2023-01-26T07:52:07;77891.25;;;18.16;100.00
48555;BME280;34336;48.270;16.716;2023-01-26T07:54:34;77885.47;;;18.16;100.00
48555;BME280;34336;48.270;16.716;2023-01-26T07:57:01;77881.59;;;18.16;100.00
48555;BME280;34336;48.270;16.716;2023-01-26T07:59:27;77870.03;;;18.16;100.00
48555;BME280;34336;48.270;16.716;2023-01-26T08:01:54;77873.91;;;18.16;100.00
48555;BME280;34336;48.270;16.716;2023-01-26T08:04:21;77870.03;;;18.16;100.00
48555;BME280;34336;48.270;16.716;2023-01-26T08:06:50;77870.03;;;18.16;100.00
48555;BME280;34336;48.270;16.716;2023-01-26T08:09:17;77870.03;;;18.16;100.00
48555;BME280;34336;48.270;16.716;2023-01-26T08:11:43;77873.91;;;18.16;100.00
48555;BME280;34336;48.270;16.716;2023-01-26T08:14:10;77866.19;;;18.16;100.00
48555;BME280;34336;48.270;16.716;2023-01-26T08:16:36;77871.97;;;18.16;100.00
48555;BME280;34336;48.270;16.716;2023-01-26T08:19:03;77870.03;;;18.16;100.00
48555;BME280;34336;48.270;16.716;2023-01-26T08:21:30;77877.75;;;18.16;100.00
48555;BME280;34336;48.270;16.716;2023-01-26T08:23:56;77854.63;;;18.16;100.00
48555;BME280;34336;48.270;16.716;2023-01-26T08:26:27;77848.84;;;18.16;100.00
48555;BME280;34336;48.270;16.716;2023-01-26T08:28:54;77846.91;;;18.16;100.00
48555;BME280;34336;48.270;16.716;2023-01-26T08:31:21;77852.69;;;18.16;100.00
48555;BME280;34336;48.270;16.716;2023-01-26T08:33:50;77854.63;;;18.16;100.00
48555;BME280;34336;48.270;16.716;2023-01-26T08:36:18;77850.75;;;18.16;100.00
48555;BME280;34336;48.270;16.716;2023-01-26T08:38:48;77852.69;;;18.16;100.00
48555;BME280;34336;48.270;16.716;2023-01-26T08:41:14;77850.75;;;18.16;100.00
48555;BME280;34336;48.270;16.716;2023-01-26T08:43:41;77839.19;;;18.16;100.00
48555;BME280;34336;48.270;16.716;2023-01-26T08:46:08;77831.50;;;18.16;100.00
48555;BME280;34336;48.270;16.716;2023-01-26T08:48:35;77827.63;;;18.16;100.00
48555;BME280;34336;48.270;16.716;2023-01-26T08:51:04;77831.50;;;18.16;100.00
48555;BME280;34336;48.270;16.716;2023-01-26T08:53:32;77819.91;;;18.16;100.00
48555;BME280;34336;48.270;16.716;2023-01-26T08:56:03;77827.63;;;18.16;100.00
48555;BME280;34336;48.270;16.716;2023-01-26T08:58:31;77831.50;;;18.16;100.00
48555;BME280;34336;48.270;16.716;2023-01-26T09:01:03;77835.34;;;18.16;100.00
48555;BME280;34336;48.270;16.716;2023-01-26T09:03:30;77839.19;;;18.16;100.00
48555;BME280;34336;48.270;16.716;2023-01-26T09:06:00;77818.00;;;18.16;100.00
48555;BME280;34336;48.270;16.716;2023-01-26T09:08:27;77812.22;;;18.16;100.00
48555;BME280;34336;48.270;16.716;2023-01-26T09:10:54;77821.84;;;18.16;100.00
48555;BME280;34336;48.270;16.716;2023-01-26T09:13:21;77812.22;;;18.16;100.00
48555;BME280;34336;48.270;16.716;2023-01-26T09:15:48;77810.28;;;18.16;100.00
48555;BME280;34336;48.270;16.716;2023-01-26T09:18:14;77810.28;;;18.16;100.00
48555;BME280;34336;48.270;16.716;2023-01-26T09:20:41;77814.13;;;18.16;100.00
48555;BME280;34336;48.270;16.716;2023-01-26T09:23:08;77796.78;;;18.16;100.00
48555;BME280;34336;48.270;16.716;2023-01-26T09:25:35;77785.22;;;18.16;100.00
48555;BME280;34336;48.270;16.716;2023-01-26T09:28:03;77816.06;;;18.16;100.00
48555;BME280;34336;48.270;16.716;2023-01-26T09:30:31;77812.22;;;18.16;100.00
48555;BME280;34336;48.270;16.716;2023-01-26T09:33:03;77821.84;;;18.16;100.00
48555;BME280;34336;48.270;16.716;2023-01-26T09:35:30;77819.91;;;18.16;100.00
48555;BME280;34336;48.270;16.716;2023-01-26T09:37:56;77806.44;;;18.16;100.00
48555;BME280;34336;48.270;16.716;2023-01-26T09:43:53;77791.00;;;18.16;100.00
48555;BME280;34336;48.270;16.716;2023-01-26T09:49:09;77785.22;;;18.16;100.00
48555;BME280;34336;48.270;16.716;2023-01-26T09:51:43;77781.38;;;18.16;100.00
48555;BME280;34336;48.270;16.716;2023-01-26T09:57:11;77789.06;;;18.16;100.00
48555;BME280;34336;48.270;16.716;2023-01-26T09:59:43;77771.72;;;18.16;100.00
48555;BME280;34336;48.270;16.716;2023-01-26T10:04:42;77758.22;;;18.16;100.00
48555;BME280;34336;48.270;16.716;2023-01-26T10:07:12;77744.75;;;18.16;100.00
48555;BME280;34336;48.270;16.716;2023-01-26T10:09:47;77738.97;;;18.16;100.00
48555;BME280;34336;48.270;16.716;2023-01-26T10:12:22;77735.09;;;18.16;100.00
48555;BME280;34336;48.270;16.716;2023-01-26T10:15:01;77723.53;;;18.16;100.00
48555;BME280;34336;48.270;16.716;2023-01-26T10:17:34;77742.81;;;18.16;100.00
48555;BME280;34336;48.270;16.716;2023-01-26T10:22:54;77737.03;;;18.16;100.00
48555;BME280;34336;48.270;16.716;2023-01-26T10:25:33;77727.38;;;18.16;100.00
48555;BME280;34336;48.270;16.716;2023-01-26T10:28:24;77719.69;;;18.16;100.00
48555;BME280;34336;48.270;16.716;2023-01-26T10:30:52;77737.03;;;18.16;100.00
48555;BME280;34336;48.270;16.716;2023-01-26T10:33:25;77725.47;;;18.16;100.00
48555;BME280;34336;48.270;16.716;2023-01-26T10:35:52;77708.13;;;18.16;100.00
48555;BME280;34336;48.270;16.716;2023-01-26T10:43:41;77713.91;;;18.16;100.00
48555;BME280;34336;48.270;16.716;2023-01-26T10:46:35;77708.13;;;18.16;100.00
48555;BME280;34336;48.270;16.716;2023-01-26T10:52:04;77681.13;;;18.16;100.00
48555;BME280;34336;48.270;16.716;2023-01-26T10:54:33;77665.72;;;18.16;100.00
48555;BME280;34336;48.270;16.716;2023-01-26T10:57:04;77661.84;;;18.16;100.00
48555;BME280;34336;48.270;16.716;2023-01-26T10:59:47;77648.34;;;18.16;100.00
48555;BME280;34336;48.270;16.716;2023-01-26T11:07:35;77646.44;;;18.16;100.00
48555;BME280;34336;48.270;16.716;2023-01-26T11:10:23;77654.13;;;18.16;100.00
48555;BME280;34336;48.270;16.716;2023-01-26T11:13:05;77638.72;;;18.16;100.00
48555;BME280;34336;48.270;16.716;2023-01-26T11:15:39;77625.22;;;18.16;100.00
48555;BME280;34336;48.270;16.716;2023-01-26T11:18:40;77615.59;;;18.16;100.00
48555;BME280;34336;48.270;16.716;2023-01-26T11:24:08;77584.75;;;18.16;100.00
48555;BME280;34336;48.270;16.716;2023-01-26T11:29:28;77577.03;;;18.16;100.00
48555;BME280;34336;48.270;16.716;2023-01-26T11:37:45;77553.91;;;18.16;100.00
48555;BME280;34336;48.270;16.716;2023-01-26T11:40:27;77553.91;;;18.16;99.38
48555;BME280;34336;48.270;16.716;2023-01-26T11:48:39;77557.75;;;18.16;98.78
48555;BME280;34336;48.270;16.716;2023-01-26T11:51:23;77565.47;;;18.16;97.59
48555;BME280;34336;48.270;16.716;2023-01-26T11:57:31;77546.19;;;18.16;98.27
48555;BME280;34336;48.270;16.716;2023-01-26T11:59:47;77550.06;;;18.16;97.25
48555;BME280;34336;48.270;16.716;2023-01-26T12:02:33;77538.47;;;18.16;97.45
48555;BME280;34336;48.270;16.716;2023-01-26T12:05:10;77538.47;;;18.16;96.81
48555;BME280;34336;48.270;16.716;2023-01-26T12:13:15;77528.84;;;18.16;96.03
48555;BME280;34336;48.270;16.716;2023-01-26T12:15:52;77530.78;;;18.16;94.94
48555;BME280;34336;48.270;16.716;2023-01-26T12:18:34;77519.22;;;18.16;95.73
48555;BME280;34336;48.270;16.716;2023-01-26T12:21:19;77517.28;;;18.16;96.03
48555;BME280;34336;48.270;16.716;2023-01-26T12:26:20;77534.63;;;18.16;94.97
48555;BME280;34336;48.270;16.716;2023-01-26T12:32:00;77530.78;;;18.16;95.87
48555;BME280;34336;48.270;16.716;2023-01-26T12:34:32;77540.41;;;18.16;96.08
48555;BME280;34336;48.270;16.716;2023-01-26T12:44:47;77573.19;;;18.16;98.85
48555;BME280;34336;48.270;16.716;2023-01-26T12:47:23;77569.31;;;18.16;99.41
48555;BME280;34336;48.270;16.716;2023-01-26T12:55:24;77569.31;;;18.16;98.57
48555;BME280;34336;48.270;16.716;2023-01-26T12:57:58;77569.31;;;18.16;97.81
48555;BME280;34336;48.270;16.716;2023-01-26T13:00:32;77565.47;;;18.16;97.84
48555;BME280;34336;48.270;16.716;2023-01-26T13:03:04;77553.91;;;18.16;97.86
48555;BME280;34336;48.270;16.716;2023-01-26T13:05:34;77557.75;;;18.16;97.86
48555;BME280;34336;48.270;16.716;2023-01-26T13:11:01;77551.97;;;18.16;98.69
48555;BME280;34336;48.270;16.716;2023-01-26T13:13:50;77553.91;;;18.16;98.18
48555;BME280;34336;48.270;16.716;2023-01-26T13:18:55;77565.47;;;18.16;99.60
48555;BME280;34336;48.270;16.716;2023-01-26T13:24:01;77573.19;;;18.16;100.00
48555;BME280;34336;48.270;16.716;2023-01-26T13:34:45;77573.19;;;18.16;100.00
48555;BME280;34336;48.270;16.716;2023-01-26T13:37:25;77578.97;;;18.16;100.00
48555;BME280;34336;48.270;16.716;2023-01-26T13:39:57;77588.59;;;18.16;100.00
48555;BME280;34336;48.270;16.716;2023-01-26T13:42:34;77596.31;;;18.16;100.00
48555;BME280;34336;48.270;16.716;2023-01-26T13:45:06;77596.31;;;18.16;100.00
48555;BME280;34336;48.270;16.716;2023-01-26T13:47:40;77604.03;;;18.16;100.00
48555;BME280;34336;48.270;16.716;2023-01-26T13:52:49;77596.31;;;18.16;100.00
48555;BME280;34336;48.270;16.716;2023-01-26T13:55:28;77596.31;;;18.16;100.00
48555;BME280;34336;48.270;16.716;2023-01-26T13:58:25;77596.31;;;18.16;100.00
48555;BME280;34336;48.270;16.716;2023-01-26T14:01:12;77600.16;;;18.16;100.00
48555;BME280;34336;48.270;16.716;2023-01-26T14:03:39;77602.09;;;18.16;100.00
48555;BME280;34336;48.270;16.716;2023-01-26T14:06:10;77600.16;;;18.16;100.00
48555;BME280;34336;48.270;16.716;2023-01-26T14:08:42;77607.88;;;18.16;100.00
48555;BME280;34336;48.270;16.716;2023-01-26T14:11:17;77602.09;;;18.16;100.00
48555;BME280;34336;48.270;16.716;2023-01-26T14:13:49;77607.88;;;18.16;100.00
48555;BME280;34336;48.270;16.716;2023-01-26T14:16:43;77607.88;;;18.16;100.00
48555;BME280;34336;48.270;16.716;2023-01-26T14:19:18;77609.81;;;18.16;100.00
48555;BME280;34336;48.270;16.716;2023-01-26T14:26:55;77602.09;;;18.16;100.00
48555;BME280;34336;48.270;16.716;2023-01-26T14:29:23;77604.03;;;18.16;100.00
48555;BME280;34336;48.270;16.716;2023-01-26T14:31:53;77607.88;;;18.16;100.00
48555;BME280;34336;48.270;16.716;2023-01-26T14:34:22;77607.88;;;18.16;100.00
48555;BME280;34336;48.270;16.716;2023-01-26T14:37:11;77607.88;;;18.16;100.00
48555;BME280;34336;48.270;16.716;2023-01-26T14:39:40;77607.88;;;18.16;100.00
48555;BME280;34336;48.270;16.716;2023-01-26T14:42:12;77615.59;;;18.16;100.00
48555;BME280;34336;48.270;16.716;2023-01-26T14:44:40;77615.59;;;18.16;100.00
48555;BME280;34336;48.270;16.716;2023-01-26T14:47:21;77607.88;;;18.16;100.00
48555;BME280;34336;48.270;16.716;2023-01-26T14:49:51;77613.66;;;18.16;100.00